<?xml version="1.0" encoding="UTF-8" standalone="no" ?>
<gpx xmlns="http://www.topografix.com/GPX/1/1" xmlns:xsi="http://www.w3.org/2001/XMLSchema-instance" xsi:schemaLocation="http://www.topografix.com/GPX/1/1 http://www.topografix.com/GPX/1/1/gpx.xsd" version="1.1" creator="VisuGPX - https://www.visugpx.com">
  <metadata>
    <name>Quatres termes (sommet) - 17/04/22</name>
    <desc><![CDATA[08:01:56 (Dup.trace)

comment ...]]></desc>
  </metadata>
  <trk>
    <name><![CDATA[Quatres termes (sommet) - 17/04/22]]></name>
    <desc><![CDATA[comment ...]]></desc>
    <extensions>
      <line xmlns="http://www.topografix.com/GPX/gpx_style/0/2">
        <color>0000FF</color>
        <width>4</width>
      </line>
    </extensions>
    <trkseg>
      <trkpt lat="42.90864" lon="0.18073">
        <ele>1783.2</ele>
        <time>2022-04-17T06:01:56Z</time>
      </trkpt>
      <trkpt lat="42.90857" lon="0.18072">
        <ele>1785.7</ele>
        <time>2022-04-17T06:02:23Z</time>
      </trkpt>
      <trkpt lat="42.90848" lon="0.18074">
        <ele>1789.1</ele>
        <time>2022-04-17T06:02:53Z</time>
      </trkpt>
      <trkpt lat="42.90841" lon="0.1807">
        <ele>1791.4</ele>
        <time>2022-04-17T06:03:06Z</time>
      </trkpt>
      <trkpt lat="42.90833" lon="0.18072">
        <ele>1794.4</ele>
        <time>2022-04-17T06:03:30Z</time>
      </trkpt>
      <trkpt lat="42.90825" lon="0.18071">
        <ele>1796.3</ele>
        <time>2022-04-17T06:03:48Z</time>
      </trkpt>
      <trkpt lat="42.90813" lon="0.18072">
        <ele>1799.2</ele>
        <time>2022-04-17T06:04:17Z</time>
      </trkpt>
      <trkpt lat="42.908" lon="0.18076">
        <ele>1802.3</ele>
        <time>2022-04-17T06:05:02Z</time>
      </trkpt>
      <trkpt lat="42.90786" lon="0.18075">
        <ele>1805.6</ele>
        <time>2022-04-17T06:05:37Z</time>
      </trkpt>
      <trkpt lat="42.90778" lon="0.18076">
        <ele>1807.4</ele>
        <time>2022-04-17T06:05:59Z</time>
      </trkpt>
      <trkpt lat="42.90769" lon="0.18072">
        <ele>1809.9</ele>
        <time>2022-04-17T06:06:12Z</time>
      </trkpt>
      <trkpt lat="42.90759" lon="0.18073">
        <ele>1812.2</ele>
        <time>2022-04-17T06:06:30Z</time>
      </trkpt>
      <trkpt lat="42.90751" lon="0.18072">
        <ele>1814.3</ele>
        <time>2022-04-17T06:06:44Z</time>
      </trkpt>
      <trkpt lat="42.90741" lon="0.18072">
        <ele>1815.5</ele>
        <time>2022-04-17T06:06:58Z</time>
      </trkpt>
      <trkpt lat="42.9073" lon="0.18073">
        <ele>1816.6</ele>
        <time>2022-04-17T06:07:14Z</time>
      </trkpt>
      <trkpt lat="42.90723" lon="0.18079">
        <ele>1816.3</ele>
        <time>2022-04-17T06:07:27Z</time>
      </trkpt>
      <trkpt lat="42.90714" lon="0.18079">
        <ele>1817.3</ele>
        <time>2022-04-17T06:07:44Z</time>
      </trkpt>
      <trkpt lat="42.90698" lon="0.18077">
        <ele>1819.3</ele>
        <time>2022-04-17T06:08:22Z</time>
      </trkpt>
      <trkpt lat="42.90681" lon="0.18079">
        <ele>1820.7</ele>
        <time>2022-04-17T06:09:15Z</time>
      </trkpt>
      <trkpt lat="42.90673" lon="0.18082">
        <ele>1820.7</ele>
        <time>2022-04-17T06:09:40Z</time>
      </trkpt>
      <trkpt lat="42.90664" lon="0.18083">
        <ele>1822.3</ele>
        <time>2022-04-17T06:10:01Z</time>
      </trkpt>
      <trkpt lat="42.90655" lon="0.18083">
        <ele>1826.4</ele>
        <time>2022-04-17T06:10:18Z</time>
      </trkpt>
      <trkpt lat="42.90648" lon="0.18079">
        <ele>1830.5</ele>
        <time>2022-04-17T06:10:27Z</time>
      </trkpt>
      <trkpt lat="42.9064" lon="0.18079">
        <ele>1834.1</ele>
        <time>2022-04-17T06:10:40Z</time>
      </trkpt>
      <trkpt lat="42.90631" lon="0.18074">
        <ele>1839.2</ele>
        <time>2022-04-17T06:11:00Z</time>
      </trkpt>
      <trkpt lat="42.90625" lon="0.18068">
        <ele>1843</ele>
        <time>2022-04-17T06:11:10Z</time>
      </trkpt>
      <trkpt lat="42.90593" lon="0.1805">
        <ele>1859.5</ele>
        <time>2022-04-17T06:12:03Z</time>
      </trkpt>
      <trkpt lat="42.90585" lon="0.18048">
        <ele>1863</ele>
        <time>2022-04-17T06:12:23Z</time>
      </trkpt>
      <trkpt lat="42.90571" lon="0.18036">
        <ele>1873.1</ele>
        <time>2022-04-17T06:12:51Z</time>
      </trkpt>
      <trkpt lat="42.90556" lon="0.18029">
        <ele>1883.4</ele>
        <time>2022-04-17T06:13:35Z</time>
      </trkpt>
      <trkpt lat="42.90538" lon="0.18019">
        <ele>1895.7</ele>
        <time>2022-04-17T06:14:34Z</time>
      </trkpt>
      <trkpt lat="42.9053" lon="0.18018">
        <ele>1900.8</ele>
        <time>2022-04-17T06:14:48Z</time>
      </trkpt>
      <trkpt lat="42.90518" lon="0.18023">
        <ele>1907.8</ele>
        <time>2022-04-17T06:15:23Z</time>
      </trkpt>
      <trkpt lat="42.90517" lon="0.18011">
        <ele>1909.6</ele>
        <time>2022-04-17T06:16:08Z</time>
      </trkpt>
      <trkpt lat="42.9052" lon="0.18001">
        <ele>1908.7</ele>
        <time>2022-04-17T06:16:45Z</time>
      </trkpt>
      <trkpt lat="42.90509" lon="0.18007">
        <ele>1914.9</ele>
        <time>2022-04-17T06:17:24Z</time>
      </trkpt>
      <trkpt lat="42.90508" lon="0.17989">
        <ele>1916.4</ele>
        <time>2022-04-17T06:18:31Z</time>
      </trkpt>
      <trkpt lat="42.90493" lon="0.17993">
        <ele>1924.3</ele>
        <time>2022-04-17T06:19:22Z</time>
      </trkpt>
      <trkpt lat="42.90495" lon="0.17983">
        <ele>1923.5</ele>
        <time>2022-04-17T06:19:45Z</time>
      </trkpt>
      <trkpt lat="42.905" lon="0.17971">
        <ele>1921.3</ele>
        <time>2022-04-17T06:20:37Z</time>
      </trkpt>
      <trkpt lat="42.90498" lon="0.1796">
        <ele>1922.4</ele>
        <time>2022-04-17T06:20:57Z</time>
      </trkpt>
      <trkpt lat="42.90489" lon="0.17953">
        <ele>1926.7</ele>
        <time>2022-04-17T06:21:20Z</time>
      </trkpt>
      <trkpt lat="42.90471" lon="0.17955">
        <ele>1935</ele>
        <time>2022-04-17T06:22:15Z</time>
      </trkpt>
      <trkpt lat="42.90455" lon="0.17962">
        <ele>1942.2</ele>
        <time>2022-04-17T06:23:10Z</time>
      </trkpt>
      <trkpt lat="42.90452" lon="0.17951">
        <ele>1943.8</ele>
        <time>2022-04-17T06:23:31Z</time>
      </trkpt>
      <trkpt lat="42.90446" lon="0.17941">
        <ele>1946.8</ele>
        <time>2022-04-17T06:23:55Z</time>
      </trkpt>
      <trkpt lat="42.90438" lon="0.17951">
        <ele>1950.3</ele>
        <time>2022-04-17T06:24:37Z</time>
      </trkpt>
      <trkpt lat="42.90433" lon="0.17964">
        <ele>1952.3</ele>
        <time>2022-04-17T06:25:01Z</time>
      </trkpt>
      <trkpt lat="42.90423" lon="0.17975">
        <ele>1956.7</ele>
        <time>2022-04-17T06:25:30Z</time>
      </trkpt>
      <trkpt lat="42.90417" lon="0.17968">
        <ele>1959.6</ele>
        <time>2022-04-17T06:26:09Z</time>
      </trkpt>
      <trkpt lat="42.90412" lon="0.17946">
        <ele>1962.3</ele>
        <time>2022-04-17T06:26:50Z</time>
      </trkpt>
      <trkpt lat="42.90401" lon="0.1793">
        <ele>1967.8</ele>
        <time>2022-04-17T06:27:22Z</time>
      </trkpt>
      <trkpt lat="42.90396" lon="0.1794">
        <ele>1969.5</ele>
        <time>2022-04-17T06:28:00Z</time>
      </trkpt>
      <trkpt lat="42.90392" lon="0.17951">
        <ele>1970.6</ele>
        <time>2022-04-17T06:28:37Z</time>
      </trkpt>
      <trkpt lat="42.90388" lon="0.17959">
        <ele>1971.6</ele>
        <time>2022-04-17T06:28:50Z</time>
      </trkpt>
      <trkpt lat="42.90381" lon="0.17971">
        <ele>1973.5</ele>
        <time>2022-04-17T06:29:24Z</time>
      </trkpt>
      <trkpt lat="42.90369" lon="0.17978">
        <ele>1977.4</ele>
        <time>2022-04-17T06:29:56Z</time>
      </trkpt>
      <trkpt lat="42.90358" lon="0.17989">
        <ele>1980.1</ele>
        <time>2022-04-17T06:30:34Z</time>
      </trkpt>
      <trkpt lat="42.90353" lon="0.17996">
        <ele>1980.9</ele>
        <time>2022-04-17T06:30:54Z</time>
      </trkpt>
      <trkpt lat="42.90336" lon="0.18007">
        <ele>1985.2</ele>
        <time>2022-04-17T06:31:37Z</time>
      </trkpt>
      <trkpt lat="42.90318" lon="0.18014">
        <ele>1994.8</ele>
        <time>2022-04-17T06:32:13Z</time>
      </trkpt>
      <trkpt lat="42.90308" lon="0.18016">
        <ele>2000.8</ele>
        <time>2022-04-17T06:32:30Z</time>
      </trkpt>
      <trkpt lat="42.903" lon="0.18022">
        <ele>2004.9</ele>
        <time>2022-04-17T06:32:55Z</time>
      </trkpt>
      <trkpt lat="42.90293" lon="0.18029">
        <ele>2008.2</ele>
        <time>2022-04-17T06:33:14Z</time>
      </trkpt>
      <trkpt lat="42.90284" lon="0.18032">
        <ele>2013.2</ele>
        <time>2022-04-17T06:33:58Z</time>
      </trkpt>
      <trkpt lat="42.90273" lon="0.18036">
        <ele>2019.4</ele>
        <time>2022-04-17T06:34:17Z</time>
      </trkpt>
      <trkpt lat="42.90253" lon="0.1804">
        <ele>2031</ele>
        <time>2022-04-17T06:34:53Z</time>
      </trkpt>
      <trkpt lat="42.90233" lon="0.18053">
        <ele>2042.7</ele>
        <time>2022-04-17T06:35:41Z</time>
      </trkpt>
      <trkpt lat="42.90223" lon="0.18058">
        <ele>2049</ele>
        <time>2022-04-17T06:36:08Z</time>
      </trkpt>
      <trkpt lat="42.90216" lon="0.18059">
        <ele>2053.8</ele>
        <time>2022-04-17T06:36:31Z</time>
      </trkpt>
      <trkpt lat="42.90209" lon="0.18037">
        <ele>2063.2</ele>
        <time>2022-04-17T06:37:07Z</time>
      </trkpt>
      <trkpt lat="42.90201" lon="0.18041">
        <ele>2068.2</ele>
        <time>2022-04-17T06:37:49Z</time>
      </trkpt>
      <trkpt lat="42.90193" lon="0.18044">
        <ele>2073.4</ele>
        <time>2022-04-17T06:38:19Z</time>
      </trkpt>
      <trkpt lat="42.90186" lon="0.18043">
        <ele>2078.7</ele>
        <time>2022-04-17T06:39:39Z</time>
      </trkpt>
      <trkpt lat="42.90182" lon="0.18025">
        <ele>2085.4</ele>
        <time>2022-04-17T06:40:30Z</time>
      </trkpt>
      <trkpt lat="42.90179" lon="0.18015">
        <ele>2089.7</ele>
        <time>2022-04-17T06:40:57Z</time>
      </trkpt>
      <trkpt lat="42.90174" lon="0.18024">
        <ele>2091.4</ele>
        <time>2022-04-17T06:41:38Z</time>
      </trkpt>
      <trkpt lat="42.90167" lon="0.18037">
        <ele>2093.8</ele>
        <time>2022-04-17T06:42:10Z</time>
      </trkpt>
      <trkpt lat="42.90161" lon="0.18029">
        <ele>2099.4</ele>
        <time>2022-04-17T06:42:53Z</time>
      </trkpt>
      <trkpt lat="42.90156" lon="0.18009">
        <ele>2107.7</ele>
        <time>2022-04-17T06:43:33Z</time>
      </trkpt>
      <trkpt lat="42.90146" lon="0.18025">
        <ele>2110.2</ele>
        <time>2022-04-17T06:44:52Z</time>
      </trkpt>
      <trkpt lat="42.90141" lon="0.18037">
        <ele>2109.7</ele>
        <time>2022-04-17T06:45:47Z</time>
      </trkpt>
      <trkpt lat="42.90135" lon="0.18058">
        <ele>2106.3</ele>
        <time>2022-04-17T06:46:36Z</time>
      </trkpt>
      <trkpt lat="42.90126" lon="0.18083">
        <ele>2101.7</ele>
        <time>2022-04-17T06:47:28Z</time>
      </trkpt>
      <trkpt lat="42.90126" lon="0.18094">
        <ele>2099.3</ele>
        <time>2022-04-17T06:49:11Z</time>
      </trkpt>
      <trkpt lat="42.90108" lon="0.1812">
        <ele>2100</ele>
        <time>2022-04-17T06:49:58Z</time>
      </trkpt>
      <trkpt lat="42.9009" lon="0.18149">
        <ele>2097.6</ele>
        <time>2022-04-17T06:50:50Z</time>
      </trkpt>
      <trkpt lat="42.90082" lon="0.18155">
        <ele>2098.2</ele>
        <time>2022-04-17T06:51:09Z</time>
      </trkpt>
      <trkpt lat="42.90064" lon="0.18158">
        <ele>2104.4</ele>
        <time>2022-04-17T06:51:46Z</time>
      </trkpt>
      <trkpt lat="42.90056" lon="0.18163">
        <ele>2105.6</ele>
        <time>2022-04-17T06:52:07Z</time>
      </trkpt>
      <trkpt lat="42.90045" lon="0.18164">
        <ele>2109.4</ele>
        <time>2022-04-17T06:53:28Z</time>
      </trkpt>
      <trkpt lat="42.90036" lon="0.18165">
        <ele>2112.4</ele>
        <time>2022-04-17T06:53:49Z</time>
      </trkpt>
      <trkpt lat="42.90014" lon="0.18178">
        <ele>2116.9</ele>
        <time>2022-04-17T06:54:26Z</time>
      </trkpt>
      <trkpt lat="42.90006" lon="0.18176">
        <ele>2120.2</ele>
        <time>2022-04-17T06:54:35Z</time>
      </trkpt>
      <trkpt lat="42.89998" lon="0.18177">
        <ele>2122.5</ele>
        <time>2022-04-17T06:54:47Z</time>
      </trkpt>
      <trkpt lat="42.89976" lon="0.18191">
        <ele>2124.3</ele>
        <time>2022-04-17T06:55:19Z</time>
      </trkpt>
      <trkpt lat="42.89958" lon="0.18199">
        <ele>2126.9</ele>
        <time>2022-04-17T06:55:54Z</time>
      </trkpt>
      <trkpt lat="42.89934" lon="0.18203">
        <ele>2132.2</ele>
        <time>2022-04-17T06:56:37Z</time>
      </trkpt>
      <trkpt lat="42.89926" lon="0.18202">
        <ele>2134.6</ele>
        <time>2022-04-17T06:56:48Z</time>
      </trkpt>
      <trkpt lat="42.89915" lon="0.18204">
        <ele>2136.8</ele>
        <time>2022-04-17T06:57:10Z</time>
      </trkpt>
      <trkpt lat="42.89907" lon="0.18203">
        <ele>2138.1</ele>
        <time>2022-04-17T06:57:23Z</time>
      </trkpt>
      <trkpt lat="42.89885" lon="0.18212">
        <ele>2138.2</ele>
        <time>2022-04-17T06:58:09Z</time>
      </trkpt>
      <trkpt lat="42.89878" lon="0.18219">
        <ele>2136.9</ele>
        <time>2022-04-17T06:58:27Z</time>
      </trkpt>
      <trkpt lat="42.8987" lon="0.18222">
        <ele>2136.7</ele>
        <time>2022-04-17T06:58:45Z</time>
      </trkpt>
      <trkpt lat="42.8986" lon="0.18233">
        <ele>2134.1</ele>
        <time>2022-04-17T06:59:17Z</time>
      </trkpt>
      <trkpt lat="42.89842" lon="0.18243">
        <ele>2132</ele>
        <time>2022-04-17T07:00:02Z</time>
      </trkpt>
      <trkpt lat="42.89819" lon="0.18263">
        <ele>2129.3</ele>
        <time>2022-04-17T07:00:55Z</time>
      </trkpt>
      <trkpt lat="42.89804" lon="0.18266">
        <ele>2130.1</ele>
        <time>2022-04-17T07:01:21Z</time>
      </trkpt>
      <trkpt lat="42.89797" lon="0.18261">
        <ele>2131.3</ele>
        <time>2022-04-17T07:04:35Z</time>
      </trkpt>
      <trkpt lat="42.89792" lon="0.18249">
        <ele>2133.3</ele>
        <time>2022-04-17T07:04:51Z</time>
      </trkpt>
      <trkpt lat="42.89786" lon="0.18237">
        <ele>2137.4</ele>
        <time>2022-04-17T07:05:10Z</time>
      </trkpt>
      <trkpt lat="42.89778" lon="0.18225">
        <ele>2141.3</ele>
        <time>2022-04-17T07:05:29Z</time>
      </trkpt>
      <trkpt lat="42.89771" lon="0.18219">
        <ele>2143.2</ele>
        <time>2022-04-17T07:05:42Z</time>
      </trkpt>
      <trkpt lat="42.89743" lon="0.18209">
        <ele>2147.7</ele>
        <time>2022-04-17T07:06:24Z</time>
      </trkpt>
      <trkpt lat="42.89728" lon="0.18212">
        <ele>2149.7</ele>
        <time>2022-04-17T07:06:41Z</time>
      </trkpt>
      <trkpt lat="42.89716" lon="0.18219">
        <ele>2149.8</ele>
        <time>2022-04-17T07:07:40Z</time>
      </trkpt>
      <trkpt lat="42.89705" lon="0.18226">
        <ele>2149.5</ele>
        <time>2022-04-17T07:07:58Z</time>
      </trkpt>
      <trkpt lat="42.89692" lon="0.18224">
        <ele>2152.4</ele>
        <time>2022-04-17T07:08:20Z</time>
      </trkpt>
      <trkpt lat="42.89679" lon="0.18228">
        <ele>2153.2</ele>
        <time>2022-04-17T07:08:39Z</time>
      </trkpt>
      <trkpt lat="42.89659" lon="0.18225">
        <ele>2160.9</ele>
        <time>2022-04-17T07:09:06Z</time>
      </trkpt>
      <trkpt lat="42.89635" lon="0.18202">
        <ele>2185.5</ele>
        <time>2022-04-17T07:09:38Z</time>
      </trkpt>
      <trkpt lat="42.89627" lon="0.18197">
        <ele>2193</ele>
        <time>2022-04-17T07:09:57Z</time>
      </trkpt>
      <trkpt lat="42.8962" lon="0.18188">
        <ele>2201.9</ele>
        <time>2022-04-17T07:10:08Z</time>
      </trkpt>
      <trkpt lat="42.89616" lon="0.18177">
        <ele>2210</ele>
        <time>2022-04-17T07:10:21Z</time>
      </trkpt>
      <trkpt lat="42.89596" lon="0.18177">
        <ele>2224.2</ele>
        <time>2022-04-17T07:10:48Z</time>
      </trkpt>
      <trkpt lat="42.89588" lon="0.18182">
        <ele>2227.1</ele>
        <time>2022-04-17T07:11:10Z</time>
      </trkpt>
      <trkpt lat="42.89582" lon="0.18201">
        <ele>2220.2</ele>
        <time>2022-04-17T07:11:39Z</time>
      </trkpt>
      <trkpt lat="42.89571" lon="0.18219">
        <ele>2215.2</ele>
        <time>2022-04-17T07:12:13Z</time>
      </trkpt>
      <trkpt lat="42.89555" lon="0.18234">
        <ele>2215.1</ele>
        <time>2022-04-17T07:12:46Z</time>
      </trkpt>
      <trkpt lat="42.89547" lon="0.18233">
        <ele>2219.5</ele>
        <time>2022-04-17T07:13:06Z</time>
      </trkpt>
      <trkpt lat="42.8954" lon="0.18237">
        <ele>2221.1</ele>
        <time>2022-04-17T07:13:18Z</time>
      </trkpt>
      <trkpt lat="42.89527" lon="0.18245">
        <ele>2224</ele>
        <time>2022-04-17T07:13:56Z</time>
      </trkpt>
      <trkpt lat="42.8952" lon="0.18254">
        <ele>2224.6</ele>
        <time>2022-04-17T07:14:26Z</time>
      </trkpt>
      <trkpt lat="42.89513" lon="0.18257">
        <ele>2227.8</ele>
        <time>2022-04-17T07:14:44Z</time>
      </trkpt>
      <trkpt lat="42.89507" lon="0.18261">
        <ele>2230.3</ele>
        <time>2022-04-17T07:15:02Z</time>
      </trkpt>
      <trkpt lat="42.89491" lon="0.18277">
        <ele>2239.3</ele>
        <time>2022-04-17T07:15:50Z</time>
      </trkpt>
      <trkpt lat="42.89479" lon="0.18285">
        <ele>2248</ele>
        <time>2022-04-17T07:16:16Z</time>
      </trkpt>
      <trkpt lat="42.89452" lon="0.1829">
        <ele>2269.7</ele>
        <time>2022-04-17T07:17:27Z</time>
      </trkpt>
      <trkpt lat="42.89453" lon="0.18276">
        <ele>2272.4</ele>
        <time>2022-04-17T07:18:07Z</time>
      </trkpt>
      <trkpt lat="42.89448" lon="0.18267">
        <ele>2279</ele>
        <time>2022-04-17T07:19:02Z</time>
      </trkpt>
      <trkpt lat="42.89438" lon="0.18268">
        <ele>2287.6</ele>
        <time>2022-04-17T07:19:22Z</time>
      </trkpt>
      <trkpt lat="42.89436" lon="0.18261">
        <ele>2291.3</ele>
        <time>2022-04-17T07:20:03Z</time>
      </trkpt>
      <trkpt lat="42.89442" lon="0.18249">
        <ele>2289.2</ele>
        <time>2022-04-17T07:20:31Z</time>
      </trkpt>
      <trkpt lat="42.89451" lon="0.18231">
        <ele>2286.3</ele>
        <time>2022-04-17T07:21:07Z</time>
      </trkpt>
      <trkpt lat="42.89453" lon="0.18219">
        <ele>2288.2</ele>
        <time>2022-04-17T07:21:26Z</time>
      </trkpt>
      <trkpt lat="42.89437" lon="0.1822">
        <ele>2301.5</ele>
        <time>2022-04-17T07:22:45Z</time>
      </trkpt>
      <trkpt lat="42.89426" lon="0.18224">
        <ele>2309.9</ele>
        <time>2022-04-17T07:23:18Z</time>
      </trkpt>
      <trkpt lat="42.89422" lon="0.18223">
        <ele>2313.6</ele>
        <time>2022-04-17T07:24:10Z</time>
      </trkpt>
      <trkpt lat="42.89426" lon="0.18212">
        <ele>2312.9</ele>
        <time>2022-04-17T07:24:26Z</time>
      </trkpt>
      <trkpt lat="42.8942" lon="0.18207">
        <ele>2319.1</ele>
        <time>2022-04-17T07:25:14Z</time>
      </trkpt>
      <trkpt lat="42.89414" lon="0.18201">
        <ele>2324.8</ele>
        <time>2022-04-17T07:26:00Z</time>
      </trkpt>
      <trkpt lat="42.89425" lon="0.18184">
        <ele>2320.6</ele>
        <time>2022-04-17T07:26:42Z</time>
      </trkpt>
      <trkpt lat="42.8943" lon="0.18161">
        <ele>2322.2</ele>
        <time>2022-04-17T07:28:42Z</time>
      </trkpt>
      <trkpt lat="42.89434" lon="0.18149">
        <ele>2321.8</ele>
        <time>2022-04-17T07:30:02Z</time>
      </trkpt>
      <trkpt lat="42.89438" lon="0.18138">
        <ele>2321.6</ele>
        <time>2022-04-17T07:30:22Z</time>
      </trkpt>
      <trkpt lat="42.89449" lon="0.18132">
        <ele>2316.3</ele>
        <time>2022-04-17T07:31:04Z</time>
      </trkpt>
      <trkpt lat="42.89457" lon="0.18125">
        <ele>2313.5</ele>
        <time>2022-04-17T07:31:43Z</time>
      </trkpt>
      <trkpt lat="42.89454" lon="0.18114">
        <ele>2318.5</ele>
        <time>2022-04-17T07:32:35Z</time>
      </trkpt>
      <trkpt lat="42.89444" lon="0.1811">
        <ele>2324.8</ele>
        <time>2022-04-17T07:33:02Z</time>
      </trkpt>
      <trkpt lat="42.89453" lon="0.18099">
        <ele>2323.3</ele>
        <time>2022-04-17T07:34:35Z</time>
      </trkpt>
      <trkpt lat="42.89444" lon="0.18099">
        <ele>2327.6</ele>
        <time>2022-04-17T07:34:58Z</time>
      </trkpt>
      <trkpt lat="42.89447" lon="0.18089">
        <ele>2328.8</ele>
        <time>2022-04-17T07:35:37Z</time>
      </trkpt>
      <trkpt lat="42.89439" lon="0.18085">
        <ele>2333.2</ele>
        <time>2022-04-17T07:36:36Z</time>
      </trkpt>
      <trkpt lat="42.89436" lon="0.18074">
        <ele>2334.9</ele>
        <time>2022-04-17T07:36:53Z</time>
      </trkpt>
      <trkpt lat="42.89429" lon="0.18062">
        <ele>2337.4</ele>
        <time>2022-04-17T07:37:22Z</time>
      </trkpt>
      <trkpt lat="42.89424" lon="0.18047">
        <ele>2338.8</ele>
        <time>2022-04-17T07:37:52Z</time>
      </trkpt>
      <trkpt lat="42.89421" lon="0.18032">
        <ele>2339.3</ele>
        <time>2022-04-17T07:38:18Z</time>
      </trkpt>
      <trkpt lat="42.89423" lon="0.18009">
        <ele>2337.9</ele>
        <time>2022-04-17T07:38:47Z</time>
      </trkpt>
      <trkpt lat="42.89422" lon="0.17999">
        <ele>2337.8</ele>
        <time>2022-04-17T07:45:42Z</time>
      </trkpt>
      <trkpt lat="42.89421" lon="0.17952">
        <ele>2333.9</ele>
        <time>2022-04-17T07:46:25Z</time>
      </trkpt>
      <trkpt lat="42.89421" lon="0.17931">
        <ele>2332.1</ele>
        <time>2022-04-17T07:46:48Z</time>
      </trkpt>
      <trkpt lat="42.89419" lon="0.17914">
        <ele>2331.1</ele>
        <time>2022-04-17T07:47:08Z</time>
      </trkpt>
      <trkpt lat="42.89418" lon="0.17904">
        <ele>2331.7</ele>
        <time>2022-04-17T07:47:20Z</time>
      </trkpt>
      <trkpt lat="42.89419" lon="0.17873">
        <ele>2333.7</ele>
        <time>2022-04-17T07:47:51Z</time>
      </trkpt>
      <trkpt lat="42.89415" lon="0.17865">
        <ele>2335</ele>
        <time>2022-04-17T07:48:00Z</time>
      </trkpt>
      <trkpt lat="42.89414" lon="0.1784">
        <ele>2337.3</ele>
        <time>2022-04-17T07:48:25Z</time>
      </trkpt>
      <trkpt lat="42.89404" lon="0.17816">
        <ele>2349</ele>
        <time>2022-04-17T07:48:58Z</time>
      </trkpt>
      <trkpt lat="42.89401" lon="0.17806">
        <ele>2353.2</ele>
        <time>2022-04-17T07:49:11Z</time>
      </trkpt>
      <trkpt lat="42.89392" lon="0.17784">
        <ele>2362.6</ele>
        <time>2022-04-17T07:49:38Z</time>
      </trkpt>
      <trkpt lat="42.89387" lon="0.17777">
        <ele>2366</ele>
        <time>2022-04-17T07:49:52Z</time>
      </trkpt>
      <trkpt lat="42.89382" lon="0.1777">
        <ele>2369</ele>
        <time>2022-04-17T07:50:07Z</time>
      </trkpt>
      <trkpt lat="42.89369" lon="0.17758">
        <ele>2374.6</ele>
        <time>2022-04-17T07:50:33Z</time>
      </trkpt>
      <trkpt lat="42.89355" lon="0.17743">
        <ele>2379.5</ele>
        <time>2022-04-17T07:51:02Z</time>
      </trkpt>
      <trkpt lat="42.89341" lon="0.17725">
        <ele>2383.8</ele>
        <time>2022-04-17T07:51:34Z</time>
      </trkpt>
      <trkpt lat="42.8933" lon="0.17721">
        <ele>2386</ele>
        <time>2022-04-17T07:51:53Z</time>
      </trkpt>
      <trkpt lat="42.89326" lon="0.17712">
        <ele>2387</ele>
        <time>2022-04-17T07:52:14Z</time>
      </trkpt>
      <trkpt lat="42.89312" lon="0.177">
        <ele>2389</ele>
        <time>2022-04-17T07:52:53Z</time>
      </trkpt>
      <trkpt lat="42.89302" lon="0.17683">
        <ele>2389.4</ele>
        <time>2022-04-17T07:53:28Z</time>
      </trkpt>
      <trkpt lat="42.89288" lon="0.17668">
        <ele>2389.2</ele>
        <time>2022-04-17T07:54:08Z</time>
      </trkpt>
      <trkpt lat="42.89281" lon="0.17662">
        <ele>2390.8</ele>
        <time>2022-04-17T07:54:21Z</time>
      </trkpt>
      <trkpt lat="42.89275" lon="0.17652">
        <ele>2394.2</ele>
        <time>2022-04-17T07:54:44Z</time>
      </trkpt>
      <trkpt lat="42.89269" lon="0.17644">
        <ele>2397.1</ele>
        <time>2022-04-17T07:54:58Z</time>
      </trkpt>
      <trkpt lat="42.89263" lon="0.17636">
        <ele>2400</ele>
        <time>2022-04-17T07:55:28Z</time>
      </trkpt>
      <trkpt lat="42.89243" lon="0.17632">
        <ele>2405.7</ele>
        <time>2022-04-17T07:55:54Z</time>
      </trkpt>
      <trkpt lat="42.89236" lon="0.17631">
        <ele>2409.7</ele>
        <time>2022-04-17T07:56:10Z</time>
      </trkpt>
      <trkpt lat="42.8923" lon="0.17622">
        <ele>2415.8</ele>
        <time>2022-04-17T07:56:32Z</time>
      </trkpt>
      <trkpt lat="42.89224" lon="0.17611">
        <ele>2422.4</ele>
        <time>2022-04-17T07:57:38Z</time>
      </trkpt>
      <trkpt lat="42.89228" lon="0.17601">
        <ele>2423.6</ele>
        <time>2022-04-17T07:58:22Z</time>
      </trkpt>
      <trkpt lat="42.89231" lon="0.17592">
        <ele>2425.1</ele>
        <time>2022-04-17T07:58:52Z</time>
      </trkpt>
      <trkpt lat="42.89229" lon="0.17583">
        <ele>2429</ele>
        <time>2022-04-17T07:59:38Z</time>
      </trkpt>
      <trkpt lat="42.89239" lon="0.17574">
        <ele>2429.1</ele>
        <time>2022-04-17T08:00:26Z</time>
      </trkpt>
      <trkpt lat="42.89231" lon="0.17571">
        <ele>2434.2</ele>
        <time>2022-04-17T08:00:59Z</time>
      </trkpt>
      <trkpt lat="42.89223" lon="0.17569">
        <ele>2438.6</ele>
        <time>2022-04-17T08:02:00Z</time>
      </trkpt>
      <trkpt lat="42.89217" lon="0.17561">
        <ele>2444.9</ele>
        <time>2022-04-17T08:03:58Z</time>
      </trkpt>
      <trkpt lat="42.8921" lon="0.17554">
        <ele>2450.9</ele>
        <time>2022-04-17T08:04:13Z</time>
      </trkpt>
      <trkpt lat="42.89203" lon="0.17554">
        <ele>2453.6</ele>
        <time>2022-04-17T08:04:42Z</time>
      </trkpt>
      <trkpt lat="42.89198" lon="0.17543">
        <ele>2460</ele>
        <time>2022-04-17T08:05:12Z</time>
      </trkpt>
      <trkpt lat="42.89195" lon="0.17532">
        <ele>2465.6</ele>
        <time>2022-04-17T08:05:56Z</time>
      </trkpt>
      <trkpt lat="42.89192" lon="0.17532">
        <ele>2466.5</ele>
        <time>2022-04-17T08:07:30Z</time>
      </trkpt>
      <trkpt lat="42.89186" lon="0.17524">
        <ele>2471.5</ele>
        <time>2022-04-17T08:09:16Z</time>
      </trkpt>
      <trkpt lat="42.89181" lon="0.17516">
        <ele>2475.9</ele>
        <time>2022-04-17T08:10:07Z</time>
      </trkpt>
      <trkpt lat="42.89179" lon="0.17518">
        <ele>2475.7</ele>
        <time>2022-04-17T08:10:43Z</time>
      </trkpt>
      <trkpt lat="42.89171" lon="0.17509">
        <ele>2481</ele>
        <time>2022-04-17T08:10:58Z</time>
      </trkpt>
      <trkpt lat="42.89168" lon="0.17502">
        <ele>2484</ele>
        <time>2022-04-17T08:12:28Z</time>
      </trkpt>
      <trkpt lat="42.89156" lon="0.17499">
        <ele>2488</ele>
        <time>2022-04-17T08:12:59Z</time>
      </trkpt>
      <trkpt lat="42.89175" lon="0.17489">
        <ele>2488</ele>
        <time>2022-04-17T08:13:48Z</time>
      </trkpt>
      <trkpt lat="42.89167" lon="0.17485">
        <ele>2491.6</ele>
        <time>2022-04-17T08:14:51Z</time>
      </trkpt>
      <trkpt lat="42.89158" lon="0.17482">
        <ele>2494.9</ele>
        <time>2022-04-17T08:15:47Z</time>
      </trkpt>
      <trkpt lat="42.89148" lon="0.17475">
        <ele>2500</ele>
        <time>2022-04-17T08:16:15Z</time>
      </trkpt>
      <trkpt lat="42.89132" lon="0.1748">
        <ele>2501.3</ele>
        <time>2022-04-17T08:17:11Z</time>
      </trkpt>
      <trkpt lat="42.89122" lon="0.17484">
        <ele>2501.9</ele>
        <time>2022-04-17T08:17:22Z</time>
      </trkpt>
      <trkpt lat="42.89122" lon="0.17464">
        <ele>2509.6</ele>
        <time>2022-04-17T08:17:46Z</time>
      </trkpt>
      <trkpt lat="42.89117" lon="0.17455">
        <ele>2514</ele>
        <time>2022-04-17T08:18:02Z</time>
      </trkpt>
      <trkpt lat="42.89097" lon="0.17458">
        <ele>2516.6</ele>
        <time>2022-04-17T08:18:37Z</time>
      </trkpt>
      <trkpt lat="42.89086" lon="0.1746">
        <ele>2517.9</ele>
        <time>2022-04-17T08:18:49Z</time>
      </trkpt>
      <trkpt lat="42.8907" lon="0.17469">
        <ele>2519.3</ele>
        <time>2022-04-17T08:19:28Z</time>
      </trkpt>
      <trkpt lat="42.89069" lon="0.17474">
        <ele>2517.9</ele>
        <time>2022-04-17T08:21:38Z</time>
      </trkpt>
      <trkpt lat="42.89056" lon="0.17478">
        <ele>2520.4</ele>
        <time>2022-04-17T08:22:01Z</time>
      </trkpt>
      <trkpt lat="42.8904" lon="0.17486">
        <ele>2522.3</ele>
        <time>2022-04-17T08:22:49Z</time>
      </trkpt>
      <trkpt lat="42.89029" lon="0.17484">
        <ele>2526.1</ele>
        <time>2022-04-17T08:23:27Z</time>
      </trkpt>
      <trkpt lat="42.89008" lon="0.17476">
        <ele>2535</ele>
        <time>2022-04-17T08:24:08Z</time>
      </trkpt>
      <trkpt lat="42.88999" lon="0.17471">
        <ele>2539.6</ele>
        <time>2022-04-17T08:24:22Z</time>
      </trkpt>
      <trkpt lat="42.8899" lon="0.17469">
        <ele>2545.2</ele>
        <time>2022-04-17T08:24:43Z</time>
      </trkpt>
      <trkpt lat="42.88973" lon="0.17461">
        <ele>2557</ele>
        <time>2022-04-17T08:25:10Z</time>
      </trkpt>
      <trkpt lat="42.88962" lon="0.17466">
        <ele>2561.2</ele>
        <time>2022-04-17T08:25:32Z</time>
      </trkpt>
      <trkpt lat="42.88936" lon="0.17467">
        <ele>2574.9</ele>
        <time>2022-04-17T08:26:11Z</time>
      </trkpt>
      <trkpt lat="42.88919" lon="0.17477">
        <ele>2580.9</ele>
        <time>2022-04-17T08:26:38Z</time>
      </trkpt>
      <trkpt lat="42.88915" lon="0.17487">
        <ele>2580.6</ele>
        <time>2022-04-17T08:26:56Z</time>
      </trkpt>
      <trkpt lat="42.88909" lon="0.17496">
        <ele>2583.8</ele>
        <time>2022-04-17T08:27:13Z</time>
      </trkpt>
      <trkpt lat="42.88907" lon="0.17506">
        <ele>2583.9</ele>
        <time>2022-04-17T08:28:26Z</time>
      </trkpt>
      <trkpt lat="42.88891" lon="0.17515">
        <ele>2598.7</ele>
        <time>2022-04-17T08:28:55Z</time>
      </trkpt>
      <trkpt lat="42.88883" lon="0.17518">
        <ele>2606.3</ele>
        <time>2022-04-17T08:29:22Z</time>
      </trkpt>
      <trkpt lat="42.88871" lon="0.17531">
        <ele>2616.4</ele>
        <time>2022-04-17T08:29:53Z</time>
      </trkpt>
      <trkpt lat="42.8886" lon="0.17552">
        <ele>2624.1</ele>
        <time>2022-04-17T08:30:45Z</time>
      </trkpt>
      <trkpt lat="42.88847" lon="0.17579">
        <ele>2632.8</ele>
        <time>2022-04-17T08:31:33Z</time>
      </trkpt>
      <trkpt lat="42.88843" lon="0.17588">
        <ele>2635.3</ele>
        <time>2022-04-17T08:33:19Z</time>
      </trkpt>
      <trkpt lat="42.88842" lon="0.17599">
        <ele>2634.5</ele>
        <time>2022-04-17T08:40:26Z</time>
      </trkpt>
      <trkpt lat="42.8884" lon="0.1761">
        <ele>2634.7</ele>
        <time>2022-04-17T08:40:44Z</time>
      </trkpt>
      <trkpt lat="42.88835" lon="0.17618">
        <ele>2638.5</ele>
        <time>2022-04-17T08:40:58Z</time>
      </trkpt>
      <trkpt lat="42.88831" lon="0.1763">
        <ele>2638.2</ele>
        <time>2022-04-17T08:41:49Z</time>
      </trkpt>
      <trkpt lat="42.88829" lon="0.17627">
        <ele>2638.8</ele>
        <time>2022-04-17T08:44:00Z</time>
      </trkpt>
      <trkpt lat="42.88819" lon="0.17641">
        <ele>2636.5</ele>
        <time>2022-04-17T08:44:24Z</time>
      </trkpt>
      <trkpt lat="42.88804" lon="0.17635">
        <ele>2637.9</ele>
        <time>2022-04-17T08:44:56Z</time>
      </trkpt>
      <trkpt lat="42.88805" lon="0.17649">
        <ele>2635.3</ele>
        <time>2022-04-17T08:45:32Z</time>
      </trkpt>
      <trkpt lat="42.88803" lon="0.17672">
        <ele>2631.4</ele>
        <time>2022-04-17T08:46:09Z</time>
      </trkpt>
      <trkpt lat="42.88796" lon="0.17674">
        <ele>2631</ele>
        <time>2022-04-17T08:47:02Z</time>
      </trkpt>
      <trkpt lat="42.88787" lon="0.17678">
        <ele>2630</ele>
        <time>2022-04-17T08:47:17Z</time>
      </trkpt>
      <trkpt lat="42.88781" lon="0.1767">
        <ele>2631.3</ele>
        <time>2022-04-17T08:47:30Z</time>
      </trkpt>
      <trkpt lat="42.88783" lon="0.17657">
        <ele>2633.9</ele>
        <time>2022-04-17T08:47:54Z</time>
      </trkpt>
      <trkpt lat="42.88774" lon="0.17653">
        <ele>2634.8</ele>
        <time>2022-04-17T08:48:08Z</time>
      </trkpt>
      <trkpt lat="42.88774" lon="0.17652">
        <ele>2635</ele>
        <time>2022-04-17T08:49:16Z</time>
      </trkpt>
      <trkpt lat="42.88766" lon="0.17658">
        <ele>2633.8</ele>
        <time>2022-04-17T08:49:31Z</time>
      </trkpt>
      <trkpt lat="42.88767" lon="0.17676">
        <ele>2629.6</ele>
        <time>2022-04-17T08:50:55Z</time>
      </trkpt>
      <trkpt lat="42.88757" lon="0.17668">
        <ele>2631.6</ele>
        <time>2022-04-17T08:52:13Z</time>
      </trkpt>
      <trkpt lat="42.88749" lon="0.17657">
        <ele>2633.9</ele>
        <time>2022-04-17T08:52:40Z</time>
      </trkpt>
      <trkpt lat="42.88742" lon="0.17655">
        <ele>2633.4</ele>
        <time>2022-04-17T08:54:21Z</time>
      </trkpt>
      <trkpt lat="42.8874" lon="0.17665">
        <ele>2630.7</ele>
        <time>2022-04-17T08:55:33Z</time>
      </trkpt>
      <trkpt lat="42.88739" lon="0.17675">
        <ele>2627.4</ele>
        <time>2022-04-17T08:55:54Z</time>
      </trkpt>
      <trkpt lat="42.8874" lon="0.17686">
        <ele>2623.9</ele>
        <time>2022-04-17T08:56:11Z</time>
      </trkpt>
      <trkpt lat="42.88738" lon="0.17696">
        <ele>2620.3</ele>
        <time>2022-04-17T08:56:33Z</time>
      </trkpt>
      <trkpt lat="42.8873" lon="0.17703">
        <ele>2616.4</ele>
        <time>2022-04-17T08:57:19Z</time>
      </trkpt>
      <trkpt lat="42.8872" lon="0.17704">
        <ele>2614.2</ele>
        <time>2022-04-17T08:59:12Z</time>
      </trkpt>
      <trkpt lat="42.88716" lon="0.1768">
        <ele>2621.7</ele>
        <time>2022-04-17T08:59:52Z</time>
      </trkpt>
      <trkpt lat="42.88708" lon="0.17662">
        <ele>2626.5</ele>
        <time>2022-04-17T09:16:18Z</time>
      </trkpt>
      <trkpt lat="42.88704" lon="0.17646">
        <ele>2631.2</ele>
        <time>2022-04-17T09:17:28Z</time>
      </trkpt>
      <trkpt lat="42.88701" lon="0.17626">
        <ele>2637.7</ele>
        <time>2022-04-17T09:19:06Z</time>
      </trkpt>
      <trkpt lat="42.88698" lon="0.17625">
        <ele>2637.9</ele>
        <time>2022-04-17T09:21:00Z</time>
      </trkpt>
      <trkpt lat="42.88696" lon="0.17609">
        <ele>2643.5</ele>
        <time>2022-04-17T09:21:56Z</time>
      </trkpt>
      <trkpt lat="42.88704" lon="0.17603">
        <ele>2645.6</ele>
        <time>2022-04-17T09:24:31Z</time>
      </trkpt>
      <trkpt lat="42.88703" lon="0.1759">
        <ele>2650</ele>
        <time>2022-04-17T09:26:10Z</time>
      </trkpt>
      <trkpt lat="42.88699" lon="0.17578">
        <ele>2651.9</ele>
        <time>2022-04-17T09:29:06Z</time>
      </trkpt>
      <trkpt lat="42.88697" lon="0.17565">
        <ele>2650.7</ele>
        <time>2022-04-17T09:30:12Z</time>
      </trkpt>
      <trkpt lat="42.88696" lon="0.17554">
        <ele>2649.6</ele>
        <time>2022-04-17T09:31:09Z</time>
      </trkpt>
      <trkpt lat="42.88693" lon="0.17542">
        <ele>2648.6</ele>
        <time>2022-04-17T09:32:42Z</time>
      </trkpt>
      <trkpt lat="42.887" lon="0.17527">
        <ele>2646.6</ele>
        <time>2022-04-17T09:34:34Z</time>
      </trkpt>
      <trkpt lat="42.88701" lon="0.1754">
        <ele>2647.9</ele>
        <time>2022-04-17T09:34:49Z</time>
      </trkpt>
      <trkpt lat="42.88696" lon="0.17547">
        <ele>2648.9</ele>
        <time>2022-04-17T09:35:10Z</time>
      </trkpt>
      <trkpt lat="42.88699" lon="0.1757">
        <ele>2651.1</ele>
        <time>2022-04-17T09:38:39Z</time>
      </trkpt>
      <trkpt lat="42.88702" lon="0.17582">
        <ele>2652.2</ele>
        <time>2022-04-17T09:39:43Z</time>
      </trkpt>
      <trkpt lat="42.88704" lon="0.176">
        <ele>2646.6</ele>
        <time>2022-04-17T09:42:10Z</time>
      </trkpt>
      <trkpt lat="42.88701" lon="0.17613">
        <ele>2642.2</ele>
        <time>2022-04-17T09:44:15Z</time>
      </trkpt>
      <trkpt lat="42.88701" lon="0.17611">
        <ele>2642.9</ele>
        <time>2022-04-17T09:45:18Z</time>
      </trkpt>
      <trkpt lat="42.88699" lon="0.17623">
        <ele>2638.6</ele>
        <time>2022-04-17T09:45:25Z</time>
      </trkpt>
      <trkpt lat="42.88699" lon="0.17633">
        <ele>2635.2</ele>
        <time>2022-04-17T09:45:42Z</time>
      </trkpt>
      <trkpt lat="42.88701" lon="0.17643">
        <ele>2631.9</ele>
        <time>2022-04-17T09:45:57Z</time>
      </trkpt>
      <trkpt lat="42.88705" lon="0.17651">
        <ele>2629.7</ele>
        <time>2022-04-17T09:46:09Z</time>
      </trkpt>
      <trkpt lat="42.8871" lon="0.17663">
        <ele>2626.5</ele>
        <time>2022-04-17T09:46:25Z</time>
      </trkpt>
      <trkpt lat="42.88714" lon="0.17676">
        <ele>2622.7</ele>
        <time>2022-04-17T09:46:35Z</time>
      </trkpt>
      <trkpt lat="42.88716" lon="0.17674">
        <ele>2623.8</ele>
        <time>2022-04-17T09:50:41Z</time>
      </trkpt>
      <trkpt lat="42.88722" lon="0.1768">
        <ele>2622.8</ele>
        <time>2022-04-17T10:13:01Z</time>
      </trkpt>
      <trkpt lat="42.88725" lon="0.17695">
        <ele>2618.2</ele>
        <time>2022-04-17T10:15:08Z</time>
      </trkpt>
      <trkpt lat="42.8873" lon="0.17703">
        <ele>2616.4</ele>
        <time>2022-04-17T10:15:11Z</time>
      </trkpt>
      <trkpt lat="42.88739" lon="0.17698">
        <ele>2619.8</ele>
        <time>2022-04-17T10:15:42Z</time>
      </trkpt>
      <trkpt lat="42.88746" lon="0.17693">
        <ele>2622.7</ele>
        <time>2022-04-17T10:16:18Z</time>
      </trkpt>
      <trkpt lat="42.88752" lon="0.17669">
        <ele>2631.3</ele>
        <time>2022-04-17T10:16:26Z</time>
      </trkpt>
      <trkpt lat="42.8876" lon="0.17669">
        <ele>2631.3</ele>
        <time>2022-04-17T10:16:29Z</time>
      </trkpt>
      <trkpt lat="42.88768" lon="0.17655">
        <ele>2634.4</ele>
        <time>2022-04-17T10:16:33Z</time>
      </trkpt>
      <trkpt lat="42.88782" lon="0.17606">
        <ele>2644</ele>
        <time>2022-04-17T10:16:56Z</time>
      </trkpt>
      <trkpt lat="42.88787" lon="0.17583">
        <ele>2648.2</ele>
        <time>2022-04-17T10:17:02Z</time>
      </trkpt>
      <trkpt lat="42.88788" lon="0.17569">
        <ele>2648.2</ele>
        <time>2022-04-17T10:17:36Z</time>
      </trkpt>
      <trkpt lat="42.8879" lon="0.17542">
        <ele>2648.6</ele>
        <time>2022-04-17T10:17:43Z</time>
      </trkpt>
      <trkpt lat="42.88799" lon="0.1751">
        <ele>2650.9</ele>
        <time>2022-04-17T10:17:49Z</time>
      </trkpt>
      <trkpt lat="42.88808" lon="0.17496">
        <ele>2651.7</ele>
        <time>2022-04-17T10:17:54Z</time>
      </trkpt>
      <trkpt lat="42.88816" lon="0.17495">
        <ele>2653.4</ele>
        <time>2022-04-17T10:18:26Z</time>
      </trkpt>
      <trkpt lat="42.88823" lon="0.17505">
        <ele>2656.7</ele>
        <time>2022-04-17T10:18:30Z</time>
      </trkpt>
      <trkpt lat="42.8883" lon="0.17525">
        <ele>2655.3</ele>
        <time>2022-04-17T10:18:33Z</time>
      </trkpt>
      <trkpt lat="42.88856" lon="0.17538">
        <ele>2630.5</ele>
        <time>2022-04-17T10:18:39Z</time>
      </trkpt>
      <trkpt lat="42.88875" lon="0.17521">
        <ele>2614</ele>
        <time>2022-04-17T10:18:45Z</time>
      </trkpt>
      <trkpt lat="42.8888" lon="0.17508">
        <ele>2611.1</ele>
        <time>2022-04-17T10:18:48Z</time>
      </trkpt>
      <trkpt lat="42.8888" lon="0.17495">
        <ele>2612.5</ele>
        <time>2022-04-17T10:19:05Z</time>
      </trkpt>
      <trkpt lat="42.88888" lon="0.17496">
        <ele>2604.6</ele>
        <time>2022-04-17T10:19:08Z</time>
      </trkpt>
      <trkpt lat="42.88894" lon="0.17504">
        <ele>2597.4</ele>
        <time>2022-04-17T10:19:10Z</time>
      </trkpt>
      <trkpt lat="42.88904" lon="0.17503">
        <ele>2587.4</ele>
        <time>2022-04-17T10:19:13Z</time>
      </trkpt>
      <trkpt lat="42.88908" lon="0.17493">
        <ele>2585.5</ele>
        <time>2022-04-17T10:19:16Z</time>
      </trkpt>
      <trkpt lat="42.88916" lon="0.17498">
        <ele>2576.3</ele>
        <time>2022-04-17T10:19:19Z</time>
      </trkpt>
      <trkpt lat="42.88923" lon="0.17505">
        <ele>2570.7</ele>
        <time>2022-04-17T10:19:22Z</time>
      </trkpt>
      <trkpt lat="42.8893" lon="0.17509">
        <ele>2566.1</ele>
        <time>2022-04-17T10:19:31Z</time>
      </trkpt>
      <trkpt lat="42.88933" lon="0.17498">
        <ele>2566.6</ele>
        <time>2022-04-17T10:20:07Z</time>
      </trkpt>
      <trkpt lat="42.88943" lon="0.17483">
        <ele>2566</ele>
        <time>2022-04-17T10:20:10Z</time>
      </trkpt>
      <trkpt lat="42.88994" lon="0.17465">
        <ele>2544.4</ele>
        <time>2022-04-17T10:20:20Z</time>
      </trkpt>
      <trkpt lat="42.89" lon="0.17472">
        <ele>2538.7</ele>
        <time>2022-04-17T10:20:23Z</time>
      </trkpt>
      <trkpt lat="42.89021" lon="0.17478">
        <ele>2530.5</ele>
        <time>2022-04-17T10:20:29Z</time>
      </trkpt>
      <trkpt lat="42.89046" lon="0.17484">
        <ele>2521.2</ele>
        <time>2022-04-17T10:20:34Z</time>
      </trkpt>
      <trkpt lat="42.89063" lon="0.17473">
        <ele>2520</ele>
        <time>2022-04-17T10:20:37Z</time>
      </trkpt>
      <trkpt lat="42.89075" lon="0.17468">
        <ele>2518.2</ele>
        <time>2022-04-17T10:20:39Z</time>
      </trkpt>
      <trkpt lat="42.89088" lon="0.17474">
        <ele>2512.8</ele>
        <time>2022-04-17T10:20:41Z</time>
      </trkpt>
      <trkpt lat="42.89096" lon="0.17481">
        <ele>2508.7</ele>
        <time>2022-04-17T10:20:45Z</time>
      </trkpt>
      <trkpt lat="42.89103" lon="0.17484">
        <ele>2506.1</ele>
        <time>2022-04-17T10:23:42Z</time>
      </trkpt>
      <trkpt lat="42.89114" lon="0.17483">
        <ele>2504</ele>
        <time>2022-04-17T10:23:45Z</time>
      </trkpt>
      <trkpt lat="42.89126" lon="0.17488">
        <ele>2499.5</ele>
        <time>2022-04-17T10:23:48Z</time>
      </trkpt>
      <trkpt lat="42.89133" lon="0.17495">
        <ele>2495.1</ele>
        <time>2022-04-17T10:23:50Z</time>
      </trkpt>
      <trkpt lat="42.89152" lon="0.17495">
        <ele>2490.6</ele>
        <time>2022-04-17T10:24:36Z</time>
      </trkpt>
      <trkpt lat="42.8916" lon="0.175">
        <ele>2486.6</ele>
        <time>2022-04-17T10:24:40Z</time>
      </trkpt>
      <trkpt lat="42.89157" lon="0.17509">
        <ele>2484.5</ele>
        <time>2022-04-17T10:24:46Z</time>
      </trkpt>
      <trkpt lat="42.89154" lon="0.17519">
        <ele>2482.2</ele>
        <time>2022-04-17T10:24:50Z</time>
      </trkpt>
      <trkpt lat="42.89168" lon="0.17526">
        <ele>2476.2</ele>
        <time>2022-04-17T10:24:58Z</time>
      </trkpt>
      <trkpt lat="42.89168" lon="0.17538">
        <ele>2472.2</ele>
        <time>2022-04-17T10:25:52Z</time>
      </trkpt>
      <trkpt lat="42.89174" lon="0.17548">
        <ele>2466.8</ele>
        <time>2022-04-17T10:26:52Z</time>
      </trkpt>
      <trkpt lat="42.89142" lon="0.17563">
        <ele>2472.5</ele>
        <time>2022-04-17T10:27:05Z</time>
      </trkpt>
      <trkpt lat="42.89142" lon="0.17573">
        <ele>2469.6</ele>
        <time>2022-04-17T10:27:10Z</time>
      </trkpt>
      <trkpt lat="42.89151" lon="0.17578">
        <ele>2465.1</ele>
        <time>2022-04-17T10:27:13Z</time>
      </trkpt>
      <trkpt lat="42.89153" lon="0.17594">
        <ele>2460.3</ele>
        <time>2022-04-17T10:27:16Z</time>
      </trkpt>
      <trkpt lat="42.89142" lon="0.17604">
        <ele>2462.1</ele>
        <time>2022-04-17T10:27:21Z</time>
      </trkpt>
      <trkpt lat="42.89148" lon="0.1761">
        <ele>2458.5</ele>
        <time>2022-04-17T10:27:50Z</time>
      </trkpt>
      <trkpt lat="42.89147" lon="0.17621">
        <ele>2456.4</ele>
        <time>2022-04-17T10:27:52Z</time>
      </trkpt>
      <trkpt lat="42.89159" lon="0.17629">
        <ele>2449.7</ele>
        <time>2022-04-17T10:27:58Z</time>
      </trkpt>
      <trkpt lat="42.89164" lon="0.1764">
        <ele>2444.9</ele>
        <time>2022-04-17T10:28:02Z</time>
      </trkpt>
      <trkpt lat="42.8917" lon="0.1765">
        <ele>2439.4</ele>
        <time>2022-04-17T10:28:04Z</time>
      </trkpt>
      <trkpt lat="42.89178" lon="0.17678">
        <ele>2430.9</ele>
        <time>2022-04-17T10:28:07Z</time>
      </trkpt>
      <trkpt lat="42.89198" lon="0.17717">
        <ele>2423</ele>
        <time>2022-04-17T10:28:10Z</time>
      </trkpt>
      <trkpt lat="42.89215" lon="0.17738">
        <ele>2417.7</ele>
        <time>2022-04-17T10:28:13Z</time>
      </trkpt>
      <trkpt lat="42.89264" lon="0.17758">
        <ele>2405.4</ele>
        <time>2022-04-17T10:28:27Z</time>
      </trkpt>
      <trkpt lat="42.89271" lon="0.17764">
        <ele>2405.5</ele>
        <time>2022-04-17T10:28:29Z</time>
      </trkpt>
      <trkpt lat="42.89277" lon="0.17773">
        <ele>2406.5</ele>
        <time>2022-04-17T10:28:33Z</time>
      </trkpt>
      <trkpt lat="42.89288" lon="0.17765">
        <ele>2400.2</ele>
        <time>2022-04-17T10:29:39Z</time>
      </trkpt>
      <trkpt lat="42.89301" lon="0.17753">
        <ele>2393.2</ele>
        <time>2022-04-17T10:29:44Z</time>
      </trkpt>
      <trkpt lat="42.89325" lon="0.17739">
        <ele>2386.5</ele>
        <time>2022-04-17T10:29:50Z</time>
      </trkpt>
      <trkpt lat="42.89333" lon="0.17754">
        <ele>2384.4</ele>
        <time>2022-04-17T10:29:58Z</time>
      </trkpt>
      <trkpt lat="42.89345" lon="0.17787">
        <ele>2381.8</ele>
        <time>2022-04-17T10:30:02Z</time>
      </trkpt>
      <trkpt lat="42.89357" lon="0.17846">
        <ele>2371.6</ele>
        <time>2022-04-17T10:30:06Z</time>
      </trkpt>
      <trkpt lat="42.89369" lon="0.17871">
        <ele>2359.2</ele>
        <time>2022-04-17T10:30:08Z</time>
      </trkpt>
      <trkpt lat="42.89383" lon="0.1789">
        <ele>2348.6</ele>
        <time>2022-04-17T10:30:10Z</time>
      </trkpt>
      <trkpt lat="42.89418" lon="0.17961">
        <ele>2335.1</ele>
        <time>2022-04-17T10:30:18Z</time>
      </trkpt>
      <trkpt lat="42.89421" lon="0.17982">
        <ele>2336.5</ele>
        <time>2022-04-17T10:30:20Z</time>
      </trkpt>
      <trkpt lat="42.89422" lon="0.18014">
        <ele>2338.3</ele>
        <time>2022-04-17T10:30:24Z</time>
      </trkpt>
      <trkpt lat="42.89424" lon="0.18027">
        <ele>2338.2</ele>
        <time>2022-04-17T10:30:26Z</time>
      </trkpt>
      <trkpt lat="42.89422" lon="0.18059">
        <ele>2339.9</ele>
        <time>2022-04-17T10:30:31Z</time>
      </trkpt>
      <trkpt lat="42.89414" lon="0.18073">
        <ele>2342.9</ele>
        <time>2022-04-17T10:30:36Z</time>
      </trkpt>
      <trkpt lat="42.89422" lon="0.18076">
        <ele>2340.5</ele>
        <time>2022-04-17T10:30:42Z</time>
      </trkpt>
      <trkpt lat="42.89432" lon="0.18066">
        <ele>2336.4</ele>
        <time>2022-04-17T10:31:07Z</time>
      </trkpt>
      <trkpt lat="42.89444" lon="0.18073">
        <ele>2331.7</ele>
        <time>2022-04-17T10:31:12Z</time>
      </trkpt>
      <trkpt lat="42.8945" lon="0.1808">
        <ele>2329.1</ele>
        <time>2022-04-17T10:31:19Z</time>
      </trkpt>
      <trkpt lat="42.8943" lon="0.18112">
        <ele>2331.8</ele>
        <time>2022-04-17T10:31:29Z</time>
      </trkpt>
      <trkpt lat="42.89423" lon="0.1812">
        <ele>2334.2</ele>
        <time>2022-04-17T10:32:14Z</time>
      </trkpt>
      <trkpt lat="42.8942" lon="0.18131">
        <ele>2334.1</ele>
        <time>2022-04-17T10:32:17Z</time>
      </trkpt>
      <trkpt lat="42.89412" lon="0.18145">
        <ele>2336.1</ele>
        <time>2022-04-17T10:32:22Z</time>
      </trkpt>
      <trkpt lat="42.89422" lon="0.18163">
        <ele>2327.6</ele>
        <time>2022-04-17T10:32:35Z</time>
      </trkpt>
      <trkpt lat="42.89417" lon="0.1817">
        <ele>2330</ele>
        <time>2022-04-17T10:32:37Z</time>
      </trkpt>
      <trkpt lat="42.89418" lon="0.18192">
        <ele>2324.2</ele>
        <time>2022-04-17T10:32:43Z</time>
      </trkpt>
      <trkpt lat="42.89426" lon="0.18196">
        <ele>2316.8</ele>
        <time>2022-04-17T10:32:47Z</time>
      </trkpt>
      <trkpt lat="42.89436" lon="0.18191">
        <ele>2310.1</ele>
        <time>2022-04-17T10:32:51Z</time>
      </trkpt>
      <trkpt lat="42.89447" lon="0.18201">
        <ele>2298.5</ele>
        <time>2022-04-17T10:33:55Z</time>
      </trkpt>
      <trkpt lat="42.89432" lon="0.18234">
        <ele>2302.2</ele>
        <time>2022-04-17T10:34:03Z</time>
      </trkpt>
      <trkpt lat="42.89424" lon="0.18256">
        <ele>2303.5</ele>
        <time>2022-04-17T10:34:08Z</time>
      </trkpt>
      <trkpt lat="42.89434" lon="0.18258">
        <ele>2293.9</ele>
        <time>2022-04-17T10:34:24Z</time>
      </trkpt>
      <trkpt lat="42.89442" lon="0.18263">
        <ele>2285.4</ele>
        <time>2022-04-17T10:34:52Z</time>
      </trkpt>
      <trkpt lat="42.89445" lon="0.18273">
        <ele>2280.1</ele>
        <time>2022-04-17T10:34:56Z</time>
      </trkpt>
      <trkpt lat="42.8945" lon="0.18282">
        <ele>2273.5</ele>
        <time>2022-04-17T10:34:59Z</time>
      </trkpt>
      <trkpt lat="42.89459" lon="0.18287">
        <ele>2264.6</ele>
        <time>2022-04-17T10:35:03Z</time>
      </trkpt>
      <trkpt lat="42.89453" lon="0.18336">
        <ele>2257.4</ele>
        <time>2022-04-17T10:35:11Z</time>
      </trkpt>
      <trkpt lat="42.89454" lon="0.18347">
        <ele>2253.9</ele>
        <time>2022-04-17T10:35:12Z</time>
      </trkpt>
      <trkpt lat="42.89456" lon="0.18356">
        <ele>2250.3</ele>
        <time>2022-04-17T10:35:13Z</time>
      </trkpt>
      <trkpt lat="42.89459" lon="0.18371">
        <ele>2244.8</ele>
        <time>2022-04-17T10:35:15Z</time>
      </trkpt>
      <trkpt lat="42.89459" lon="0.18392">
        <ele>2239.9</ele>
        <time>2022-04-17T10:35:20Z</time>
      </trkpt>
      <trkpt lat="42.89467" lon="0.18386">
        <ele>2236.5</ele>
        <time>2022-04-17T10:36:08Z</time>
      </trkpt>
      <trkpt lat="42.8948" lon="0.18389">
        <ele>2228.3</ele>
        <time>2022-04-17T10:36:12Z</time>
      </trkpt>
      <trkpt lat="42.89557" lon="0.1841">
        <ele>2183.2</ele>
        <time>2022-04-17T10:36:24Z</time>
      </trkpt>
      <trkpt lat="42.89602" lon="0.18399">
        <ele>2160.2</ele>
        <time>2022-04-17T10:36:29Z</time>
      </trkpt>
      <trkpt lat="42.89691" lon="0.18361">
        <ele>2132.2</ele>
        <time>2022-04-17T10:36:39Z</time>
      </trkpt>
      <trkpt lat="42.89698" lon="0.18371">
        <ele>2131</ele>
        <time>2022-04-17T10:36:45Z</time>
      </trkpt>
      <trkpt lat="42.89696" lon="0.18363">
        <ele>2131.6</ele>
        <time>2022-04-17T10:37:13Z</time>
      </trkpt>
      <trkpt lat="42.89701" lon="0.18349">
        <ele>2131.9</ele>
        <time>2022-04-17T10:37:17Z</time>
      </trkpt>
      <trkpt lat="42.89711" lon="0.1834">
        <ele>2131.4</ele>
        <time>2022-04-17T10:37:19Z</time>
      </trkpt>
      <trkpt lat="42.89727" lon="0.18333">
        <ele>2130.2</ele>
        <time>2022-04-17T10:37:22Z</time>
      </trkpt>
      <trkpt lat="42.8981" lon="0.18318">
        <ele>2122.8</ele>
        <time>2022-04-17T10:37:50Z</time>
      </trkpt>
      <trkpt lat="42.89829" lon="0.18318">
        <ele>2120.7</ele>
        <time>2022-04-17T10:38:00Z</time>
      </trkpt>
      <trkpt lat="42.89842" lon="0.18319">
        <ele>2120.1</ele>
        <time>2022-04-17T10:38:23Z</time>
      </trkpt>
      <trkpt lat="42.8985" lon="0.18312">
        <ele>2121</ele>
        <time>2022-04-17T10:38:40Z</time>
      </trkpt>
      <trkpt lat="42.89877" lon="0.18235">
        <ele>2132</ele>
        <time>2022-04-17T10:38:53Z</time>
      </trkpt>
      <trkpt lat="42.89885" lon="0.18223">
        <ele>2134.9</ele>
        <time>2022-04-17T10:38:55Z</time>
      </trkpt>
      <trkpt lat="42.89895" lon="0.18214">
        <ele>2136.5</ele>
        <time>2022-04-17T10:38:57Z</time>
      </trkpt>
      <trkpt lat="42.89954" lon="0.18206">
        <ele>2126</ele>
        <time>2022-04-17T10:39:11Z</time>
      </trkpt>
      <trkpt lat="42.90011" lon="0.18173">
        <ele>2119.2</ele>
        <time>2022-04-17T10:39:21Z</time>
      </trkpt>
      <trkpt lat="42.90042" lon="0.18163">
        <ele>2111</ele>
        <time>2022-04-17T10:39:25Z</time>
      </trkpt>
      <trkpt lat="42.90075" lon="0.18164">
        <ele>2098</ele>
        <time>2022-04-17T10:39:29Z</time>
      </trkpt>
      <trkpt lat="42.901" lon="0.18153">
        <ele>2093.7</ele>
        <time>2022-04-17T10:39:33Z</time>
      </trkpt>
      <trkpt lat="42.90108" lon="0.18153">
        <ele>2091.6</ele>
        <time>2022-04-17T10:39:36Z</time>
      </trkpt>
      <trkpt lat="42.9012" lon="0.18089">
        <ele>2102.9</ele>
        <time>2022-04-17T10:39:46Z</time>
      </trkpt>
      <trkpt lat="42.90129" lon="0.18052">
        <ele>2111.6</ele>
        <time>2022-04-17T10:39:53Z</time>
      </trkpt>
      <trkpt lat="42.90146" lon="0.18009">
        <ele>2115</ele>
        <time>2022-04-17T10:41:17Z</time>
      </trkpt>
      <trkpt lat="42.90153" lon="0.17992">
        <ele>2115</ele>
        <time>2022-04-17T10:41:21Z</time>
      </trkpt>
      <trkpt lat="42.9016" lon="0.17971">
        <ele>2116.1</ele>
        <time>2022-04-17T10:41:28Z</time>
      </trkpt>
      <trkpt lat="42.90164" lon="0.17958">
        <ele>2116.5</ele>
        <time>2022-04-17T10:41:34Z</time>
      </trkpt>
      <trkpt lat="42.90172" lon="0.17966">
        <ele>2107.8</ele>
        <time>2022-04-17T10:41:38Z</time>
      </trkpt>
      <trkpt lat="42.90179" lon="0.17961">
        <ele>2103.9</ele>
        <time>2022-04-17T10:41:42Z</time>
      </trkpt>
      <trkpt lat="42.90188" lon="0.17944">
        <ele>2101.9</ele>
        <time>2022-04-17T10:41:47Z</time>
      </trkpt>
      <trkpt lat="42.90197" lon="0.17948">
        <ele>2094</ele>
        <time>2022-04-17T10:41:50Z</time>
      </trkpt>
      <trkpt lat="42.90221" lon="0.17949">
        <ele>2075.5</ele>
        <time>2022-04-17T10:41:55Z</time>
      </trkpt>
      <trkpt lat="42.90231" lon="0.17951">
        <ele>2067.3</ele>
        <time>2022-04-17T10:41:59Z</time>
      </trkpt>
      <trkpt lat="42.90235" lon="0.17964">
        <ele>2060.8</ele>
        <time>2022-04-17T10:42:08Z</time>
      </trkpt>
      <trkpt lat="42.90224" lon="0.17991">
        <ele>2061.8</ele>
        <time>2022-04-17T10:42:22Z</time>
      </trkpt>
      <trkpt lat="42.9023" lon="0.18002">
        <ele>2054.5</ele>
        <time>2022-04-17T10:42:27Z</time>
      </trkpt>
      <trkpt lat="42.90239" lon="0.18001">
        <ele>2048</ele>
        <time>2022-04-17T10:42:48Z</time>
      </trkpt>
      <trkpt lat="42.90245" lon="0.17995">
        <ele>2045</ele>
        <time>2022-04-17T10:42:51Z</time>
      </trkpt>
      <trkpt lat="42.90254" lon="0.18">
        <ele>2037.5</ele>
        <time>2022-04-17T10:42:54Z</time>
      </trkpt>
      <trkpt lat="42.90263" lon="0.17998">
        <ele>2032.2</ele>
        <time>2022-04-17T10:42:57Z</time>
      </trkpt>
      <trkpt lat="42.90273" lon="0.17996">
        <ele>2026.3</ele>
        <time>2022-04-17T10:43:00Z</time>
      </trkpt>
      <trkpt lat="42.90281" lon="0.18003">
        <ele>2019.8</ele>
        <time>2022-04-17T10:43:02Z</time>
      </trkpt>
      <trkpt lat="42.90295" lon="0.18014">
        <ele>2009.2</ele>
        <time>2022-04-17T10:43:06Z</time>
      </trkpt>
      <trkpt lat="42.90306" lon="0.18016">
        <ele>2002</ele>
        <time>2022-04-17T10:43:09Z</time>
      </trkpt>
      <trkpt lat="42.90314" lon="0.18007">
        <ele>1998.3</ele>
        <time>2022-04-17T10:43:11Z</time>
      </trkpt>
      <trkpt lat="42.90329" lon="0.18007">
        <ele>1988.8</ele>
        <time>2022-04-17T10:43:14Z</time>
      </trkpt>
      <trkpt lat="42.90345" lon="0.18014">
        <ele>1981.3</ele>
        <time>2022-04-17T10:44:10Z</time>
      </trkpt>
      <trkpt lat="42.90355" lon="0.1803">
        <ele>1976.1</ele>
        <time>2022-04-17T10:44:15Z</time>
      </trkpt>
      <trkpt lat="42.90356" lon="0.18041">
        <ele>1974.5</ele>
        <time>2022-04-17T10:44:17Z</time>
      </trkpt>
      <trkpt lat="42.90361" lon="0.1805">
        <ele>1971.9</ele>
        <time>2022-04-17T10:44:19Z</time>
      </trkpt>
      <trkpt lat="42.90369" lon="0.18041">
        <ele>1970.4</ele>
        <time>2022-04-17T10:44:22Z</time>
      </trkpt>
      <trkpt lat="42.90375" lon="0.18036">
        <ele>1969.1</ele>
        <time>2022-04-17T10:44:24Z</time>
      </trkpt>
      <trkpt lat="42.90384" lon="0.18038">
        <ele>1966.1</ele>
        <time>2022-04-17T10:44:27Z</time>
      </trkpt>
      <trkpt lat="42.90389" lon="0.18029">
        <ele>1965.4</ele>
        <time>2022-04-17T10:44:29Z</time>
      </trkpt>
      <trkpt lat="42.90392" lon="0.18019">
        <ele>1965.4</ele>
        <time>2022-04-17T10:44:32Z</time>
      </trkpt>
      <trkpt lat="42.904" lon="0.18018">
        <ele>1962.9</ele>
        <time>2022-04-17T10:44:35Z</time>
      </trkpt>
      <trkpt lat="42.90415" lon="0.17993">
        <ele>1959.7</ele>
        <time>2022-04-17T10:44:41Z</time>
      </trkpt>
      <trkpt lat="42.90424" lon="0.17991">
        <ele>1955.9</ele>
        <time>2022-04-17T10:44:44Z</time>
      </trkpt>
      <trkpt lat="42.90432" lon="0.17981">
        <ele>1952.4</ele>
        <time>2022-04-17T10:44:47Z</time>
      </trkpt>
      <trkpt lat="42.90447" lon="0.1797">
        <ele>1945.8</ele>
        <time>2022-04-17T10:44:52Z</time>
      </trkpt>
      <trkpt lat="42.90458" lon="0.17966">
        <ele>1940.8</ele>
        <time>2022-04-17T10:44:55Z</time>
      </trkpt>
      <trkpt lat="42.90466" lon="0.17967">
        <ele>1937.1</ele>
        <time>2022-04-17T10:44:57Z</time>
      </trkpt>
      <trkpt lat="42.90481" lon="0.17967">
        <ele>1930.2</ele>
        <time>2022-04-17T10:45:01Z</time>
      </trkpt>
      <trkpt lat="42.9049" lon="0.17988">
        <ele>1925.7</ele>
        <time>2022-04-17T10:45:26Z</time>
      </trkpt>
      <trkpt lat="42.90496" lon="0.17994">
        <ele>1922.9</ele>
        <time>2022-04-17T10:45:28Z</time>
      </trkpt>
      <trkpt lat="42.90505" lon="0.18002">
        <ele>1917.8</ele>
        <time>2022-04-17T10:45:31Z</time>
      </trkpt>
      <trkpt lat="42.90507" lon="0.18012">
        <ele>1915.7</ele>
        <time>2022-04-17T10:45:33Z</time>
      </trkpt>
      <trkpt lat="42.90513" lon="0.18023">
        <ele>1910.9</ele>
        <time>2022-04-17T10:45:36Z</time>
      </trkpt>
      <trkpt lat="42.90543" lon="0.18026">
        <ele>1891.9</ele>
        <time>2022-04-17T10:45:43Z</time>
      </trkpt>
      <trkpt lat="42.90565" lon="0.18039">
        <ele>1876.5</ele>
        <time>2022-04-17T10:45:47Z</time>
      </trkpt>
      <trkpt lat="42.90572" lon="0.18046">
        <ele>1871.2</ele>
        <time>2022-04-17T10:45:48Z</time>
      </trkpt>
      <trkpt lat="42.90579" lon="0.18053">
        <ele>1865.8</ele>
        <time>2022-04-17T10:45:49Z</time>
      </trkpt>
      <trkpt lat="42.90587" lon="0.18058">
        <ele>1860.8</ele>
        <time>2022-04-17T10:45:50Z</time>
      </trkpt>
      <trkpt lat="42.90595" lon="0.18059">
        <ele>1857.3</ele>
        <time>2022-04-17T10:45:51Z</time>
      </trkpt>
      <trkpt lat="42.90602" lon="0.18059">
        <ele>1854.4</ele>
        <time>2022-04-17T10:45:52Z</time>
      </trkpt>
      <trkpt lat="42.9061" lon="0.18059">
        <ele>1851.1</ele>
        <time>2022-04-17T10:45:53Z</time>
      </trkpt>
      <trkpt lat="42.90619" lon="0.18062">
        <ele>1846.8</ele>
        <time>2022-04-17T10:45:54Z</time>
      </trkpt>
      <trkpt lat="42.90629" lon="0.18064">
        <ele>1842.1</ele>
        <time>2022-04-17T10:45:55Z</time>
      </trkpt>
      <trkpt lat="42.90639" lon="0.18066">
        <ele>1837.4</ele>
        <time>2022-04-17T10:45:56Z</time>
      </trkpt>
      <trkpt lat="42.90648" lon="0.18067">
        <ele>1833.3</ele>
        <time>2022-04-17T10:45:57Z</time>
      </trkpt>
      <trkpt lat="42.90655" lon="0.18066">
        <ele>1830.6</ele>
        <time>2022-04-17T10:45:58Z</time>
      </trkpt>
      <trkpt lat="42.90665" lon="0.18064">
        <ele>1826.8</ele>
        <time>2022-04-17T10:46:00Z</time>
      </trkpt>
      <trkpt lat="42.90675" lon="0.18077">
        <ele>1821.8</ele>
        <time>2022-04-17T10:46:23Z</time>
      </trkpt>
      <trkpt lat="42.90685" lon="0.1808">
        <ele>1820</ele>
        <time>2022-04-17T10:46:26Z</time>
      </trkpt>
      <trkpt lat="42.90782" lon="0.18071">
        <ele>1806.8</ele>
        <time>2022-04-17T10:46:45Z</time>
      </trkpt>
      <trkpt lat="42.90814" lon="0.18071">
        <ele>1799</ele>
        <time>2022-04-17T10:46:51Z</time>
      </trkpt>
      <trkpt lat="42.90823" lon="0.18068">
        <ele>1796.7</ele>
        <time>2022-04-17T10:46:53Z</time>
      </trkpt>
      <trkpt lat="42.90838" lon="0.1807">
        <ele>1792.5</ele>
        <time>2022-04-17T10:47:07Z</time>
      </trkpt>
      <trkpt lat="42.90882" lon="0.18072">
        <ele>1776.6</ele>
        <time>2022-04-17T10:47:17Z</time>
      </trkpt>
      <trkpt lat="42.9089" lon="0.18067">
        <ele>1773.4</ele>
        <time>2022-04-17T10:47:19Z</time>
      </trkpt>
      <trkpt lat="42.90896" lon="0.18057">
        <ele>1770.4</ele>
        <time>2022-04-17T10:47:22Z</time>
      </trkpt>
      <trkpt lat="42.90928" lon="0.18071">
        <ele>1761.4</ele>
        <time>2022-04-17T10:47:45Z</time>
      </trkpt>
      <trkpt lat="42.90934" lon="0.18064">
        <ele>1759.5</ele>
        <time>2022-04-17T10:48:32Z</time>
      </trkpt>
    </trkseg>
  </trk>
</gpx>